Time;durP1;ratioP1;P1;durP2;ratioP2;P2;SDS_P1;SDS_P2;PMS_P1;PMS_P2;Temp;Humidity;BMP_temperature;BMP_pressure;BME280_temperature;BME280_humidity;BME280_pressure;Samples;Min_cycle;Max_cycle;Signal;HPM_P1;HPM_P2
2023/04/11 00:14:11;;;;;;;50.57;33.67;;;5.30;99.90;;;;;;4555985;31;20258;-88
2023/04/11 00:35:05;;;;;;;47.03;32.73;;;4.70;99.90;;;;;;4619124;30;20246;-87
2023/04/11 01:00:15;;;;;;;53.90;36.97;;;4.60;99.90;;;;;;4687115;30;20280;-87
2023/04/11 01:36:01;;;;;;;58.10;38.33;;;4.20;99.90;;;;;;4698281;30;20256;-87
2023/04/11 02:06:12;;;;;;;72.40;43.60;;;3.90;99.90;;;;;;4665077;30;20234;-85
2023/04/11 02:51:42;;;;;;;67.73;46.13;;;3.90;99.90;;;;;;4653909;30;20261;-86
2023/04/11 03:17:09;;;;;;;83.10;50.77;;;3.40;99.90;;;;;;4703234;30;20261;-87
2023/04/11 03:47:07;;;;;;;89.30;53.90;;;3.40;99.90;;;;;;4603547;30;21407;-88
2023/04/11 04:02:49;;;;;;;101.03;58.67;;;3.50;99.90;;;;;;4635030;30;20721;-88
2023/04/11 04:28:19;;;;;;;114.43;67.30;;;3.80;99.90;;;;;;4667883;30;20347;-86
2023/04/11 04:53:00;;;;;;;124.13;65.90;;;4.50;99.90;;;;;;4671754;30;20320;-87
2023/04/11 05:13:19;;;;;;;99.53;62.80;;;5.40;99.90;;;;;;4532906;31;20552;-87
2023/04/11 05:38:43;;;;;;;72.60;48.23;;;6.90;99.90;;;;;;4601561;30;20392;-86
2023/04/11 05:59:16;;;;;;;59.20;40.53;;;7.80;99.90;;;;;;4581850;30;20300;-85
2023/04/11 06:34:52;;;;;;;33.33;27.57;;;9.40;99.90;;;;;;4659384;30;21541;-87
2023/04/11 06:54:58;;;;;;;27.23;22.37;;;10.70;99.90;;;;;;4560534;30;20624;-87
2023/04/11 07:20:51;;;;;;;17.60;15.67;;;11.80;99.90;;;;;;4631865;30;20710;-86
2023/04/11 08:36:59;;;;;;;6.80;5.47;;;13.60;90.90;;;;;;5672715;23;20235;-86
2023/04/11 09:02:07;;;;;;;6.07;5.47;;;14.00;88.70;;;;;;4782867;29;20515;-84
2023/04/11 09:47:56;;;;;;;2.80;2.60;;;15.00;79.10;;;;;;4743029;29;20310;-86
2023/04/11 10:43:47;;;;;;;6.10;5.50;;;15.10;80.50;;;;;;4548615;31;20209;-86
2023/04/11 11:24:24;;;;;;;5.20;4.70;;;16.10;64.70;;;;;;4770170;29;20292;-85
2023/04/11 11:54:47;;;;;;;6.13;5.53;;;16.30;63.90;;;;;;4722714;29;20456;-87
2023/04/11 12:24:39;;;;;;;6.60;5.80;;;16.70;55.20;;;;;;4610802;30;20390;-87
2023/04/11 12:50:44;;;;;;;7.07;6.47;;;16.50;54.40;;;;;;4585176;30;20256;-86
2023/04/11 13:16:04;;;;;;;7.80;7.10;;;17.10;55.60;;;;;;4587600;30;20244;-85
2023/04/11 13:41:23;;;;;;;7.77;6.97;;;16.80;57.90;;;;;;4585318;30;20244;-83
2023/04/11 14:11:36;;;;;;;7.47;6.77;;;16.80;54.40;;;;;;4490793;30;20248;-86
2023/04/11 14:41:46;;;;;;;6.53;5.90;;;16.80;55.60;;;;;;4491508;31;20503;-83
2023/04/11 15:02:20;;;;;;;6.33;5.73;;;17.50;50.00;;;;;;4483713;31;20289;-85
2023/04/11 15:58:22;;;;;;;6.83;6.00;;;15.20;62.90;;;;;;4590169;30;20561;-83
2023/04/11 16:13:05;;;;;;;7.60;6.40;;;15.50;65.90;;;;;;5919270;23;20183;31
2023/04/11 16:43:56;;;;;;;7.93;7.07;;;14.50;77.40;;;;;;4644621;30;20231;-83
2023/04/11 17:04:11;;;;;;;8.30;7.50;;;13.80;81.20;;;;;;4615004;30;20280;-86
2023/04/11 17:34:48;;;;;;;9.57;8.00;;;12.80;86.80;;;;;;4599828;30;20303;-84
2023/04/11 18:04:47;;;;;;;10.17;8.53;;;12.60;87.60;;;;;;4603409;30;20226;-84
2023/04/11 18:25:25;;;;;;;14.17;10.77;;;12.00;91.60;;;;;;4648087;30;20219;-86
2023/04/11 18:45:49;;;;;;;16.90;12.83;;;11.40;95.20;;;;;;4592768;30;20287;-85
2023/04/11 19:15:46;;;;;;;20.13;14.80;;;10.10;99.90;;;;;;4657433;30;20396;-82
2023/04/11 19:36:09;;;;;;;23.17;16.07;;;9.40;99.90;;;;;;4570956;30;20235;-84
2023/04/11 20:01:35;;;;;;;25.43;18.03;;;7.90;99.90;;;;;;4535749;31;20390;-86
2023/04/11 20:27:06;;;;;;;40.67;26.53;;;7.30;99.90;;;;;;4636204;30;20221;-85
2023/04/11 20:52:39;;;;;;;26.27;19.03;;;8.00;99.90;;;;;;4646336;30;20244;-84
2023/04/11 20:56:59;;;;;;;27.77;18.97;;;8.20;99.90;;;;;;4639695;30;20300;-84
2023/04/11 22:08:38;;;;;;;26.73;20.33;;;9.00;99.90;;;;;;4507403;31;20206;-85
2023/04/11 23:24:16;;;;;;;28.10;19.47;;;8.80;99.90;;;;;;4503918;30;20581;-85
2023/04/11 23:49:50;;;;;;;30.93;22.47;;;9.10;99.90;;;;;;4576932;30;20288;-83
